Time;durP1;ratioP1;P1;durP2;ratioP2;P2;SDS_P1;SDS_P2;PMS_P1;PMS_P2;Temp;Humidity;BMP_temperature;BMP_pressure;BME280_temperature;BME280_humidity;BME280_pressure;Samples;Min_cycle;Max_cycle;Signal;HPM_P1;HPM_P2
2021/05/08 00:01:54;;;;;;;;;;;;;;;;;;5086187;28;19923;-60
2021/05/08 00:04:19;;;;;;;;;;;;;;;;;;5083961;28;19920;-60
2021/05/08 00:06:45;;;;;;;;;;;;;;;;;;5057158;28;19920;-60
2021/05/08 00:09:11;;;;;;;;;;;;;;;;;;5050695;28;19940;-60
2021/05/08 00:11:36;;;;;;;;;;;;;;;;;;5053242;28;19916;-60
2021/05/08 00:14:02;;;;;;;;;;;;;;;;;;5055908;28;19917;-60
2021/05/08 00:16:27;;;;;;;;;;;;;;;;;;5054914;28;19995;-60
2021/05/08 00:18:53;;;;;;;;;;;;;;;;;;5058220;28;19926;-60
2021/05/08 00:21:18;;;;;;;;;;;;;;;;;;5051335;28;19920;-60
2021/05/08 00:23:43;;;;;;;;;;;;;;;;;;5059663;28;20326;-60
2021/05/08 00:26:09;;;;;;;;;;;;;;;;;;5060658;28;19913;-60
2021/05/08 00:28:34;;;;;;;;;;;;;;;;;;5058494;28;19978;-60
2021/05/08 00:30:59;;;;;;;;;;;;;;;;;;5060481;28;19916;-60
2021/05/08 00:33:25;;;;;;;;;;;;;;;;;;5054504;28;19921;-59
2021/05/08 00:35:50;;;;;;;;;;;;;;;;;;5051985;28;19968;-60
2021/05/08 00:38:16;;;;;;;;;;;;;;;;;;5060716;28;19974;-60
2021/05/08 00:40:41;;;;;;;;;;;;;;;;;;5061180;28;19928;-60
2021/05/08 00:43:06;;;;;;;;;;;;;;;;;;5054902;28;20270;-60
2021/05/08 00:45:32;;;;;;;;;;;;;;;;;;5052904;28;19923;-60
2021/05/08 00:47:57;;;;;;;;;;;;;;;;;;5056751;28;19924;-60
2021/05/08 00:50:23;;;;;;;;;;;;;;;;;;5055948;28;19912;-60
2021/05/08 00:52:48;;;;;;;;;;;;;;;;;;5056254;28;20309;-60
2021/05/08 00:55:13;;;;;;;;;;;;;;;;;;5059537;28;19923;-61
2021/05/08 00:57:39;;;;;;;;;;;;;;;;;;5055492;28;20273;-61
2021/05/08 01:00:04;;;;;;;;;;;;;;;;;;5053252;28;19924;-61
2021/05/08 01:02:29;;;;;;;;;;;;;;;;;;5057514;28;19912;-60
2021/05/08 01:04:55;;;;;;;;;;;;;;;;;;5067548;28;19934;-60
2021/05/08 01:07:21;;;;;;;;;;;;;;;;;;5085183;28;19920;-61
2021/05/08 01:09:46;;;;;;;;;;;;;;;;;;5087291;28;20006;-61
2021/05/08 01:12:11;;;;;;;;;;;;;;;;;;5093497;28;19916;-60
2021/05/08 01:14:37;;;;;;;;;;;;;;;;;;5094802;28;19908;-60
2021/05/08 01:17:02;;;;;;;;;;;;;;;;;;5091719;28;19977;-60
2021/05/08 01:19:27;;;;;;;;;;;;;;;;;;5087790;28;19912;-60
2021/05/08 01:21:53;;;;;;;;;;;;;;;;;;5089225;28;19912;-59
2021/05/08 01:24:18;;;;;;;;;;;;;;;;;;5085964;28;19943;-62
2021/05/08 01:26:43;;;;;;;;;;;;;;;;;;5086147;28;20300;-61
2021/05/08 01:29:09;;;;;;;;;;;;;;;;;;5091476;28;19912;-61
2021/05/08 01:31:34;;;;;;;;;;;;;;;;;;5078723;28;20334;-61
2021/05/08 01:34:00;;;;;;;;;;;;;;;;;;5085176;28;19913;-60
2021/05/08 01:36:25;;;;;;;;;;;;;;;;;;5087678;28;20350;-60
2021/05/08 01:38:51;;;;;;;;;;;;;;;;;;5081342;28;19921;-61
2021/05/08 01:41:16;;;;;;;;;;;;;;;;;;5077177;28;19920;-61
2021/05/08 01:43:41;;;;;;;;;;;;;;;;;;5079284;28;19956;-61
2021/05/08 01:46:07;;;;;;;;;;;;;;;;;;5079977;28;19916;-61
2021/05/08 01:48:32;;;;;;;;;;;;;;;;;;5086012;28;20056;-60
2021/05/08 01:50:58;;;;;;;;;;;;;;;;;;5073417;28;19999;-60
2021/05/08 01:53:23;;;;;;;;;;;;;;;;;;5081460;28;19912;-60
2021/05/08 01:55:48;;;;;;;;;;;;;;;;;;5076506;28;20354;-60
2021/05/08 01:58:14;;;;;;;;;;;;;;;;;;5089734;28;19912;-62
2021/05/08 02:00:41;;;;;;;;;;;;;;;;;;5083512;28;19908;-62
2021/05/08 02:03:06;;;;;;;;;;;;;;;;;;5079991;28;19912;-62
2021/05/08 02:05:32;;;;;;;;;;;;;;;;;;5069252;28;19935;-61
2021/05/08 02:08:01;;;;;;;;;;;;;;;;;;5068017;28;20329;-61
2021/05/08 02:10:26;;;;;;;;;;;;;;;;;;5076268;28;19919;-61
2021/05/08 02:12:51;;;;;;;;;;;;;;;;;;5074935;28;19920;-61
2021/05/08 02:15:17;;;;;;;;;;;;;;;;;;5071645;28;19919;-61
2021/05/08 02:17:42;;;;;;;;;;;;;;;;;;5076288;28;19913;-61
2021/05/08 02:20:08;;;;;;;;;;;;;;;;;;5074830;28;19938;-61
2021/05/08 02:22:33;;;;;;;;;;;;;;;;;;5077152;28;19912;-61
2021/05/08 02:24:58;;;;;;;;;;;;;;;;;;5074237;28;19924;-61
2021/05/08 02:27:24;;;;;;;;;;;;;;;;;;5076271;28;19916;-61
2021/05/08 02:29:49;;;;;;;;;;;;;;;;;;5082343;28;19972;-61
2021/05/08 02:32:14;;;;;;;;;;;;;;;;;;5080133;28;19916;-60
2021/05/08 02:34:40;;;;;;;;;;;;;;;;;;5083412;28;19923;-61
2021/05/08 02:37:05;;;;;;;;;;;;;;;;;;5098610;28;19944;-60
2021/05/08 02:39:31;;;;;;;;;;;;;;;;;;5086656;28;19976;-61
2021/05/08 02:41:56;;;;;;;;;;;;;;;;;;5088985;28;19936;-60
2021/05/08 02:44:21;;;;;;;;;;;;;;;;;;5083096;28;19912;-60
2021/05/08 02:46:47;;;;;;;;;;;;;;;;;;5082140;28;19969;-60
2021/05/08 02:49:12;;;;;;;;;;;;;;;;;;5082591;28;20358;-60
2021/05/08 02:51:38;;;;;;;;;;;;;;;;;;5083714;28;19912;-60
2021/05/08 02:54:03;;;;;;;;;;;;;;;;;;5087347;28;19931;-60
2021/05/08 02:56:28;;;;;;;;;;;;;;;;;;5081322;28;19959;-61
2021/05/08 02:58:54;;;;;;;;;;;;;;;;;;5084827;28;19922;-61
2021/05/08 03:01:19;;;;;;;;;;;;;;;;;;5086620;28;19912;-60
2021/05/08 03:03:44;;;;;;;;;;;;;;;;;;5084413;28;19926;-61
2021/05/08 03:06:10;;;;;;;;;;;;;;;;;;5066125;28;19966;-62
2021/05/08 03:08:35;;;;;;;;;;;;;;;;;;5071302;28;19913;-62
2021/05/08 03:11:01;;;;;;;;;;;;;;;;;;5070823;28;20368;-61
2021/05/08 03:13:26;;;;;;;;;;;;;;;;;;5078429;28;21350;-61
2021/05/08 03:15:51;;;;;;;;;;;;;;;;;;5074700;28;19923;-62
2021/05/08 03:18:17;;;;;;;;;;;;;;;;;;5080023;28;19998;-62
2021/05/08 03:20:42;;;;;;;;;;;;;;;;;;5080483;28;20369;-62
2021/05/08 03:23:07;;;;;;;;;;;;;;;;;;5079111;28;19909;-62
2021/05/08 03:25:33;;;;;;;;;;;;;;;;;;5075904;28;20346;-62
2021/05/08 03:27:58;;;;;;;;;;;;;;;;;;5081371;28;19974;-61
2021/05/08 03:30:24;;;;;;;;;;;;;;;;;;5084095;28;19920;-60
2021/05/08 03:32:49;;;;;;;;;;;;;;;;;;5088758;28;20353;-60
2021/05/08 03:35:14;;;;;;;;;;;;;;;;;;5087785;28;19916;-60
2021/05/08 03:37:40;;;;;;;;;;;;;;;;;;5087569;28;19913;-60
2021/05/08 03:40:05;;;;;;;;;;;;;;;;;;5087205;28;19908;-60
2021/05/08 03:42:30;;;;;;;;;;;;;;;;;;5087430;28;19916;-61
2021/05/08 03:44:56;;;;;;;;;;;;;;;;;;5085710;28;20027;-61
2021/05/08 03:47:21;;;;;;;;;;;;;;;;;;5086988;28;19912;-61
2021/05/08 03:49:47;;;;;;;;;;;;;;;;;;5085233;28;19999;-60
2021/05/08 03:52:12;;;;;;;;;;;;;;;;;;5085568;28;19957;-60
2021/05/08 03:54:37;;;;;;;;;;;;;;;;;;5087200;28;19924;-60
2021/05/08 03:57:03;;;;;;;;;;;;;;;;;;5086145;28;20000;-60
2021/05/08 03:59:28;;;;;;;;;;;;;;;;;;5085923;28;19968;-59
2021/05/08 04:01:54;;;;;;;;;;;;;;;;;;5085242;28;19969;-59
2021/05/08 04:04:19;;;;;;;;;;;;;;;;;;5087455;28;19920;-59
2021/05/08 04:06:44;;;;;;;;;;;;;;;;;;5087285;28;19920;-59
2021/05/08 04:09:10;;;;;;;;;;;;;;;;;;5084579;28;19942;-60
2021/05/08 04:11:36;;;;;;;;;;;;;;;;;;5086411;28;19912;-60
2021/05/08 04:14:01;;;;;;;;;;;;;;;;;;5086218;28;19932;-59
2021/05/08 04:16:26;;;;;;;;;;;;;;;;;;5085639;28;20340;-60
2021/05/08 04:18:52;;;;;;;;;;;;;;;;;;5085962;28;19916;-61
2021/05/08 04:21:17;;;;;;;;;;;;;;;;;;5085508;28;19916;-59
2021/05/08 04:23:43;;;;;;;;;;;;;;;;;;5085133;28;19924;-59
2021/05/08 04:26:08;;;;;;;;;;;;;;;;;;5084002;28;20400;-59
2021/05/08 04:28:33;;;;;;;;;;;;;;;;;;5087437;28;19939;-59
2021/05/08 04:30:59;;;;;;;;;;;;;;;;;;5083089;28;20247;-61
2021/05/08 04:33:24;;;;;;;;;;;;;;;;;;5074863;28;19917;-60
2021/05/08 04:35:49;;;;;;;;;;;;;;;;;;5069568;28;20327;-60
2021/05/08 04:38:15;;;;;;;;;;;;;;;;;;5071924;28;19923;-59
2021/05/08 04:40:40;;;;;;;;;;;;;;;;;;5071258;28;20269;-59
2021/05/08 04:43:05;;;;;;;;;;;;;;;;;;5072607;28;19912;-59
2021/05/08 04:45:31;;;;;;;;;;;;;;;;;;5072742;28;19920;-59
2021/05/08 04:47:56;;;;;;;;;;;;;;;;;;5072690;28;20394;-60
2021/05/08 04:50:22;;;;;;;;;;;;;;;;;;5073416;28;19912;-60
2021/05/08 04:52:47;;;;;;;;;;;;;;;;;;5072467;28;19912;-59
2021/05/08 04:55:12;;;;;;;;;;;;;;;;;;5072721;28;19913;-60
2021/05/08 04:57:38;;;;;;;;;;;;;;;;;;5071791;28;19916;-59
2021/05/08 05:00:03;;;;;;;;;;;;;;;;;;5071249;28;19916;-59
2021/05/08 05:02:29;;;;;;;;;;;;;;;;;;5072321;28;19912;-60
2021/05/08 05:04:54;;;;;;;;;;;;;;;;;;5072012;28;19928;-60
2021/05/08 05:07:20;;;;;;;;;;;;;;;;;;5087714;28;20356;-60
2021/05/08 05:09:45;;;;;;;;;;;;;;;;;;5072093;28;19912;-60
2021/05/08 05:12:10;;;;;;;;;;;;;;;;;;5081880;28;19982;-62
2021/05/08 05:14:36;;;;;;;;;;;;;;;;;;5067078;28;19916;-62
2021/05/08 05:17:01;;;;;;;;;;;;;;;;;;5088955;28;19995;-63
2021/05/08 05:19:26;;;;;;;;;;;;;;;;;;5068350;28;19919;-63
2021/05/08 05:21:52;;;;;;;;;;;;;;;;;;5068918;28;19908;-62
2021/05/08 05:24:17;;;;;;;;;;;;;;;;;;5085432;28;20007;-62
2021/05/08 05:26:43;;;;;;;;;;;;;;;;;;5089269;28;19920;-63
2021/05/08 05:29:09;;;;;;;;;;;;;;;;;;5085813;28;19912;-62
2021/05/08 05:31:35;;;;;;;;;;;;;;;;;;5070714;28;20026;-62
2021/05/08 05:34:00;;;;;;;;;;;;;;;;;;5087157;28;19963;-62
2021/05/08 05:36:26;;;;;;;;;;;;;;;;;;5085729;28;20029;-63
2021/05/08 05:38:51;;;;;;;;;;;;;;;;;;5082470;28;19913;-63
2021/05/08 05:41:17;;;;;;;;;;;;;;;;;;5066239;28;19912;-63
2021/05/08 05:43:42;;;;;;;;;;;;;;;;;;5063909;28;20362;-63
2021/05/08 05:46:08;;;;;;;;;;;;;;;;;;5082360;28;20345;-63
2021/05/08 05:48:33;;;;;;;;;;;;;;;;;;5065263;28;19912;-67
2021/05/08 05:50:58;;;;;;;;;;;;;;;;;;5065210;28;20003;-67
2021/05/08 05:53:24;;;;;;;;;;;;;;;;;;5071898;28;19908;-67
2021/05/08 05:55:49;;;;;;;;;;;;;;;;;;5061224;28;19912;-67
2021/05/08 05:58:15;;;;;;;;;;;;;;;;;;5066207;28;19913;-67
2021/05/08 06:00:40;;;;;;;;;;;;;;;;;;5061607;28;19974;-65
2021/05/08 06:03:06;;;;;;;;;;;;;;;;;;5061131;28;20258;-65
2021/05/08 06:05:31;;;;;;;;;;;;;;;;;;5065065;28;19931;-65
2021/05/08 06:07:56;;;;;;;;;;;;;;;;;;5070300;28;20339;-65
2021/05/08 06:10:24;;;;;;;;;;;;;;;;;;5071053;28;19912;-66
2021/05/08 06:12:50;;;;;;;;;;;;;;;;;;5072456;28;19921;-65
2021/05/08 06:15:15;;;;;;;;;;;;;;;;;;5072563;28;20264;-66
2021/05/08 06:17:40;;;;;;;;;;;;;;;;;;5072785;28;19927;-66
2021/05/08 06:20:06;;;;;;;;;;;;;;;;;;5074812;28;20004;-66
2021/05/08 06:22:31;;;;;;;;;;;;;;;;;;5074231;28;19926;-65
2021/05/08 06:24:57;;;;;;;;;;;;;;;;;;5075422;28;19916;-66
2021/05/08 06:27:23;;;;;;;;;;;;;;;;;;5076150;28;20373;-65
2021/05/08 06:29:48;;;;;;;;;;;;;;;;;;5076908;28;19920;-65
2021/05/08 06:32:14;;;;;;;;;;;;;;;;;;5076307;28;20463;-65
2021/05/08 06:34:39;;;;;;;;;;;;;;;;;;5074209;28;19912;-65
2021/05/08 06:37:05;;;;;;;;;;;;;;;;;;5074720;28;20508;-65
2021/05/08 06:39:30;;;;;;;;;;;;;;;;;;5074485;28;19992;-64
2021/05/08 06:41:56;;;;;;;;;;;;;;;;;;5072780;28;20014;-63
2021/05/08 06:44:24;;;;;;;;;;;;;;;;;;5072359;28;20390;-63
2021/05/08 06:46:50;;;;;;;;;;;;;;;;;;5073721;28;19916;-63
2021/05/08 06:49:15;;;;;;;;;;;;;;;;;;5074745;28;20357;-63
2021/05/08 06:51:41;;;;;;;;;;;;;;;;;;5074885;28;20333;-63
2021/05/08 06:54:06;;;;;;;;;;;;;;;;;;5072576;28;19923;-63
2021/05/08 06:56:31;;;;;;;;;;;;;;;;;;5074327;28;19932;-63
2021/05/08 06:58:57;;;;;;;;;;;;;;;;;;5073769;28;20015;-63
2021/05/08 07:01:22;;;;;;;;;;;;;;;;;;5074526;28;20346;-63
2021/05/08 07:03:47;;;;;;;;;;;;;;;;;;5075769;28;20015;-63
2021/05/08 07:06:13;;;;;;;;;;;;;;;;;;5080841;28;20349;-64
2021/05/08 07:08:38;;;;;;;;;;;;;;;;;;5067349;28;19923;-64
2021/05/08 07:11:04;;;;;;;;;;;;;;;;;;5066354;28;20311;-65
2021/05/08 07:13:29;;;;;;;;;;;;;;;;;;5084328;28;20009;-63
2021/05/08 07:15:56;;;;;;;;;;;;;;;;;;5082619;28;19926;-63
2021/05/08 07:18:21;;;;;;;;;;;;;;;;;;5085318;28;20028;-63
2021/05/08 07:20:47;;;;;;;;;;;;;;;;;;5066126;28;20095;-63
2021/05/08 07:23:12;;;;;;;;;;;;;;;;;;5065345;28;20330;-63
2021/05/08 07:25:38;;;;;;;;;;;;;;;;;;5083133;28;19920;-63
2021/05/08 07:28:03;;;;;;;;;;;;;;;;;;5083651;28;19912;-63
2021/05/08 07:30:28;;;;;;;;;;;;;;;;;;5083112;28;20014;-65
2021/05/08 07:32:54;;;;;;;;;;;;;;;;;;5065895;28;20262;-64
2021/05/08 07:35:19;;;;;;;;;;;;;;;;;;5084377;28;19913;-64
2021/05/08 07:37:45;;;;;;;;;;;;;;;;;;5065212;28;20276;-65
2021/05/08 07:40:11;;;;;;;;;;;;;;;;;;5084137;28;19919;-64
2021/05/08 07:42:36;;;;;;;;;;;;;;;;;;5082038;28;19952;-65
2021/05/08 07:45:02;;;;;;;;;;;;;;;;;;5066628;28;19922;-64
2021/05/08 07:47:27;;;;;;;;;;;;;;;;;;5083067;28;19916;-64
2021/05/08 07:49:52;;;;;;;;;;;;;;;;;;5066344;28;19916;-64
2021/05/08 07:52:18;;;;;;;;;;;;;;;;;;5083222;28;19981;-64
2021/05/08 07:54:43;;;;;;;;;;;;;;;;;;5084103;28;19927;-64
2021/05/08 07:57:09;;;;;;;;;;;;;;;;;;5083258;28;19932;-64
2021/05/08 07:59:34;;;;;;;;;;;;;;;;;;5083993;28;19913;-64
2021/05/08 08:01:59;;;;;;;;;;;;;;;;;;5083011;28;19924;-63
2021/05/08 08:04:25;;;;;;;;;;;;;;;;;;5081200;28;19966;-64
2021/05/08 08:06:50;;;;;;;;;;;;;;;;;;5084945;28;20402;-64
2021/05/08 08:09:15;;;;;;;;;;;;;;;;;;5063572;28;19919;-64
2021/05/08 08:11:41;;;;;;;;;;;;;;;;;;5084345;28;19927;-64
2021/05/08 08:14:06;;;;;;;;;;;;;;;;;;5082634;28;19912;-64
2021/05/08 08:16:32;;;;;;;;;;;;;;;;;;5065579;28;20003;-64
2021/05/08 08:18:57;;;;;;;;;;;;;;;;;;5065440;28;19960;-64
2021/05/08 08:21:22;;;;;;;;;;;;;;;;;;5083013;28;19913;-63
2021/05/08 08:23:48;;;;;;;;;;;;;;;;;;5082944;28;19995;-64
2021/05/08 08:26:13;;;;;;;;;;;;;;;;;;5082785;28;20342;-63
2021/05/08 08:28:39;;;;;;;;;;;;;;;;;;5084430;28;19920;-63
2021/05/08 08:31:04;;;;;;;;;;;;;;;;;;5063684;28;19988;-63
2021/05/08 08:33:29;;;;;;;;;;;;;;;;;;5084175;28;19974;-63
2021/05/08 08:35:55;;;;;;;;;;;;;;;;;;5063116;28;19964;-63
2021/05/08 08:38:20;;;;;;;;;;;;;;;;;;5084522;28;19922;-64
2021/05/08 08:40:45;;;;;;;;;;;;;;;;;;5083772;28;20410;-63
2021/05/08 08:43:12;;;;;;;;;;;;;;;;;;5081809;28;19912;-63
2021/05/08 08:45:37;;;;;;;;;;;;;;;;;;5083562;28;19923;-62
2021/05/08 08:48:02;;;;;;;;;;;;;;;;;;5082339;28;19912;-62
2021/05/08 08:50:29;;;;;;;;;;;;;;;;;;5064782;28;19962;-63
2021/05/08 08:52:54;;;;;;;;;;;;;;;;;;5063948;28;20302;-64
2021/05/08 08:55:20;;;;;;;;;;;;;;;;;;5084454;28;19916;-64
2021/05/08 08:57:47;;;;;;;;;;;;;;;;;;5080808;28;19921;-62
2021/05/08 09:00:14;;;;;;;;;;;;;;;;;;5083000;28;19912;-63
2021/05/08 09:02:39;;;;;;;;;;;;;;;;;;5080818;28;19927;-63
2021/05/08 09:05:05;;;;;;;;;;;;;;;;;;5079940;28;19928;-63
2021/05/08 09:07:30;;;;;;;;;;;;;;;;;;5073671;28;19916;-63
2021/05/08 09:09:56;;;;;;;;;;;;;;;;;;5073413;28;19960;-64
2021/05/08 09:12:26;;;;;;;;;;;;;;;;;;5073696;28;19982;-64
2021/05/08 09:14:51;;;;;;;;;;;;;;;;;;5072906;28;19920;-64
2021/05/08 09:17:17;;;;;;;;;;;;;;;;;;5073601;28;19913;-64
2021/05/08 09:19:42;;;;;;;;;;;;;;;;;;5073198;28;20381;-64
2021/05/08 09:22:07;;;;;;;;;;;;;;;;;;5073679;28;19947;-64
2021/05/08 09:24:33;;;;;;;;;;;;;;;;;;5072428;28;20003;-63
2021/05/08 09:27:00;;;;;;;;;;;;;;;;;;5072470;28;19921;-64
2021/05/08 09:29:25;;;;;;;;;;;;;;;;;;5072901;28;19920;-64
2021/05/08 09:31:51;;;;;;;;;;;;;;;;;;5093245;28;19938;-63
2021/05/08 09:34:16;;;;;;;;;;;;;;;;;;5092249;28;19916;-63
2021/05/08 09:36:42;;;;;;;;;;;;;;;;;;5092515;28;19969;-63
2021/05/08 09:39:07;;;;;;;;;;;;;;;;;;5093095;28;19912;-63
2021/05/08 09:41:32;;;;;;;;;;;;;;;;;;5091543;28;19984;-63
2021/05/08 09:43:58;;;;;;;;;;;;;;;;;;5093084;28;19912;-63
2021/05/08 09:46:23;;;;;;;;;;;;;;;;;;5092310;28;19948;-63
2021/05/08 09:48:48;;;;;;;;;;;;;;;;;;5096596;28;19912;-63
2021/05/08 09:51:14;;;;;;;;;;;;;;;;;;5096293;28;20018;-63
2021/05/08 09:53:39;;;;;;;;;;;;;;;;;;5097367;28;19912;-63
2021/05/08 09:56:05;;;;;;;;;;;;;;;;;;5094819;28;19916;-63
2021/05/08 09:58:31;;;;;;;;;;;;;;;;;;5096528;28;20004;-63
2021/05/08 10:00:57;;;;;;;;;;;;;;;;;;5096035;28;19915;-63
2021/05/08 10:03:23;;;;;;;;;;;;;;;;;;5096188;28;19923;-63
2021/05/08 10:05:49;;;;;;;;;;;;;;;;;;5094197;28;19927;-64
2021/05/08 10:08:15;;;;;;;;;;;;;;;;;;5094811;28;19916;-64
2021/05/08 10:10:40;;;;;;;;;;;;;;;;;;5095766;28;19973;-64
2021/05/08 10:13:06;;;;;;;;;;;;;;;;;;5096366;28;19915;-64
2021/05/08 10:15:31;;;;;;;;;;;;;;;;;;5096883;28;19916;-64
2021/05/08 10:17:57;;;;;;;;;;;;;;;;;;5096396;28;20312;-64
2021/05/08 10:20:22;;;;;;;;;;;;;;;;;;5097353;28;19919;-64
2021/05/08 10:22:48;;;;;;;;;;;;;;;;;;5096610;28;20345;-64
2021/05/08 10:25:13;;;;;;;;;;;;;;;;;;5096876;28;19920;-64
2021/05/08 10:27:38;;;;;;;;;;;;;;;;;;5096734;28;19912;-63
2021/05/08 10:30:04;;;;;;;;;;;;;;;;;;5096569;28;19916;-63
2021/05/08 10:32:29;;;;;;;;;;;;;;;;;;5096307;28;19920;-63
2021/05/08 10:34:56;;;;;;;;;;;;;;;;;;5112291;28;20053;-64
2021/05/08 10:37:21;;;;;;;;;;;;;;;;;;5095801;28;19915;-63
2021/05/08 10:39:47;;;;;;;;;;;;;;;;;;5095693;28;19912;-63
2021/05/08 10:42:12;;;;;;;;;;;;;;;;;;5096111;28;19951;-63
2021/05/08 10:44:38;;;;;;;;;;;;;;;;;;5094573;28;19916;-63
2021/05/08 10:47:03;;;;;;;;;;;;;;;;;;5095351;28;19920;-63
2021/05/08 10:49:28;;;;;;;;;;;;;;;;;;5110463;28;19950;-63
2021/05/08 10:51:57;;;;;;;;;;;;;;;;;;5095255;28;19919;-64
2021/05/08 10:54:23;;;;;;;;;;;;;;;;;;5095374;28;19923;-64
2021/05/08 10:56:48;;;;;;;;;;;;;;;;;;5095787;28;19916;-64
2021/05/08 10:59:14;;;;;;;;;;;;;;;;;;5093750;28;19930;-64
2021/05/08 11:01:39;;;;;;;;;;;;;;;;;;5094472;28;19916;-64
2021/05/08 11:04:04;;;;;;;;;;;;;;;;;;5096194;28;19996;-63
2021/05/08 11:06:30;;;;;;;;;;;;;;;;;;5103152;28;19967;-63
2021/05/08 11:08:55;;;;;;;;;;;;;;;;;;5103895;28;19922;-64
2021/05/08 11:11:23;;;;;;;;;;;;;;;;;;5102925;28;19959;-65
2021/05/08 11:13:50;;;;;;;;;;;;;;;;;;5104090;28;19912;-64
2021/05/08 11:16:19;;;;;;;;;;;;;;;;;;5102529;28;20348;-64
2021/05/08 11:18:44;;;;;;;;;;;;;;;;;;5104923;28;19912;-64
2021/05/08 11:21:10;;;;;;;;;;;;;;;;;;5103107;28;19916;-64
2021/05/08 11:23:35;;;;;;;;;;;;;;;;;;5104297;28;20373;-67
2021/05/08 11:26:00;;;;;;;;;;;;;;;;;;5102945;28;20036;-64
2021/05/08 11:28:26;;;;;;;;;;;;;;;;;;5104141;28;19926;-64
2021/05/08 11:30:51;;;;;;;;;;;;;;;;;;5085796;28;19911;-65
2021/05/08 11:33:17;;;;;;;;;;;;;;;;;;5102549;28;19954;-63
2021/05/08 11:35:42;;;;;;;;;;;;;;;;;;5103468;28;19918;-63
2021/05/08 11:38:07;;;;;;;;;;;;;;;;;;5102567;28;19912;-63
2021/05/08 11:40:33;;;;;;;;;;;;;;;;;;5104574;28;19947;-63
2021/05/08 11:42:58;;;;;;;;;;;;;;;;;;5102152;28;19927;-64
2021/05/08 11:45:23;;;;;;;;;;;;;;;;;;5105843;28;20296;-64
2021/05/08 11:47:49;;;;;;;;;;;;;;;;;;5102641;28;20412;-64
2021/05/08 11:50:14;;;;;;;;;;;;;;;;;;5103779;28;19920;-64
2021/05/08 11:52:40;;;;;;;;;;;;;;;;;;5103923;28;19955;-64
2021/05/08 11:55:05;;;;;;;;;;;;;;;;;;5104598;28;19923;-63
2021/05/08 11:57:31;;;;;;;;;;;;;;;;;;5103340;28;19977;-64
2021/05/08 11:59:56;;;;;;;;;;;;;;;;;;5101345;28;19927;-65
2021/05/08 12:02:22;;;;;;;;;;;;;;;;;;5104914;28;19969;-64
2021/05/08 12:04:48;;;;;;;;;;;;;;;;;;5096741;28;19920;-65
2021/05/08 12:07:13;;;;;;;;;;;;;;;;;;5093947;28;19916;-65
2021/05/08 12:09:38;;;;;;;;;;;;;;;;;;5093334;28;20294;-65
2021/05/08 12:12:04;;;;;;;;;;;;;;;;;;5093268;28;20345;-65
2021/05/08 12:14:29;;;;;;;;;;;;;;;;;;5092959;28;19923;-65
2021/05/08 12:16:54;;;;;;;;;;;;;;;;;;5108424;28;19959;-65
2021/05/08 12:19:20;;;;;;;;;;;;;;;;;;5094375;28;19912;-65
2021/05/08 12:21:45;;;;;;;;;;;;;;;;;;5092184;28;19927;-65
2021/05/08 12:24:11;;;;;;;;;;;;;;;;;;5095199;28;19948;-65
2021/05/08 12:26:36;;;;;;;;;;;;;;;;;;5092144;28;20368;-65
2021/05/08 12:29:01;;;;;;;;;;;;;;;;;;5093603;28;19923;-65
2021/05/08 12:31:27;;;;;;;;;;;;;;;;;;5093896;28;20357;-65
2021/05/08 12:33:53;;;;;;;;;;;;;;;;;;5094072;28;19958;-65
2021/05/08 12:36:20;;;;;;;;;;;;;;;;;;5093608;28;19940;-65
2021/05/08 12:38:45;;;;;;;;;;;;;;;;;;5093663;28;19916;-66
2021/05/08 12:41:11;;;;;;;;;;;;;;;;;;5094221;28;19916;-66
2021/05/08 12:43:36;;;;;;;;;;;;;;;;;;5093825;28;20311;-65
2021/05/08 12:46:02;;;;;;;;;;;;;;;;;;5094137;28;20018;-65
2021/05/08 12:48:27;;;;;;;;;;;;;;;;;;5093139;28;19923;-65
2021/05/08 12:50:52;;;;;;;;;;;;;;;;;;5093929;28;19920;-65
2021/05/08 12:53:18;;;;;;;;;;;;;;;;;;5092744;28;19916;-66
2021/05/08 12:55:44;;;;;;;;;;;;;;;;;;5110098;28;19908;-63
2021/05/08 12:58:10;;;;;;;;;;;;;;;;;;5092820;28;20246;-63
2021/05/08 13:00:35;;;;;;;;;;;;;;;;;;5093839;28;19923;-63
2021/05/08 13:03:01;;;;;;;;;;;;;;;;;;5093788;28;19916;-63
2021/05/08 13:05:26;;;;;;;;;;;;;;;;;;5096716;28;20007;-63
2021/05/08 13:07:59;;;;;;;;;;;;;;;;;;5101938;28;19916;-62
2021/05/08 13:10:24;;;;;;;;;;;;;;;;;;5101442;28;19912;-62
2021/05/08 13:12:50;;;;;;;;;;;;;;;;;;5102182;28;19923;-63
2021/05/08 13:15:15;;;;;;;;;;;;;;;;;;5100984;28;19922;-63
2021/05/08 13:17:40;;;;;;;;;;;;;;;;;;5102923;28;20315;-63
2021/05/08 13:20:06;;;;;;;;;;;;;;;;;;5098638;28;19912;-63
2021/05/08 13:22:33;;;;;;;;;;;;;;;;;;5105951;28;19916;-63
2021/05/08 13:24:59;;;;;;;;;;;;;;;;;;5104469;28;20039;-63
2021/05/08 13:27:26;;;;;;;;;;;;;;;;;;5105628;28;19991;-63
2021/05/08 13:29:51;;;;;;;;;;;;;;;;;;5105913;28;19912;-63
2021/05/08 13:32:16;;;;;;;;;;;;;;;;;;5087856;28;19912;-64
2021/05/08 13:34:42;;;;;;;;;;;;;;;;;;5102266;28;20265;-64
2021/05/08 13:37:07;;;;;;;;;;;;;;;;;;5105617;28;19918;-64
2021/05/08 13:39:32;;;;;;;;;;;;;;;;;;5102534;28;19974;-64
2021/05/08 13:41:58;;;;;;;;;;;;;;;;;;5105386;28;19951;-64
2021/05/08 13:44:23;;;;;;;;;;;;;;;;;;5106646;28;19912;-64
2021/05/08 13:46:49;;;;;;;;;;;;;;;;;;5103689;28;20356;-64
2021/05/08 13:49:14;;;;;;;;;;;;;;;;;;5106392;28;19950;-64
2021/05/08 13:51:40;;;;;;;;;;;;;;;;;;5103109;28;19915;-64
2021/05/08 13:54:05;;;;;;;;;;;;;;;;;;5108507;28;19919;-64
2021/05/08 13:56:31;;;;;;;;;;;;;;;;;;5103608;28;19915;-64
2021/05/08 13:58:56;;;;;;;;;;;;;;;;;;5105736;28;19969;-64
2021/05/08 14:01:21;;;;;;;;;;;;;;;;;;5103398;28;20053;-64
2021/05/08 14:03:47;;;;;;;;;;;;;;;;;;5105029;28;19912;-64
2021/05/08 14:06:14;;;;;;;;;;;;;;;;;;5103915;28;19923;-64
2021/05/08 14:08:41;;;;;;;;;;;;;;;;;;5105159;28;20419;-65
2021/05/08 14:11:06;;;;;;;;;;;;;;;;;;5107154;28;19922;-65
2021/05/08 14:13:32;;;;;;;;;;;;;;;;;;5104061;28;19912;-64
2021/05/08 14:15:57;;;;;;;;;;;;;;;;;;5106500;28;19908;-65
2021/05/08 14:18:22;;;;;;;;;;;;;;;;;;5086662;28;19931;-64
2021/05/08 14:20:48;;;;;;;;;;;;;;;;;;5105386;28;19912;-66
2021/05/08 14:23:13;;;;;;;;;;;;;;;;;;5085829;28;19912;-65
2021/05/08 14:25:39;;;;;;;;;;;;;;;;;;5103688;28;20027;-65
2021/05/08 14:28:04;;;;;;;;;;;;;;;;;;5104150;28;19936;-65
2021/05/08 14:30:29;;;;;;;;;;;;;;;;;;5101587;28;19916;-65
2021/05/08 14:32:55;;;;;;;;;;;;;;;;;;5104642;28;19920;-65
2021/05/08 14:35:20;;;;;;;;;;;;;;;;;;5101792;28;19931;-65
2021/05/08 14:37:45;;;;;;;;;;;;;;;;;;5103836;28;19955;-65
2021/05/08 14:40:11;;;;;;;;;;;;;;;;;;5084713;28;19983;-66
2021/05/08 14:42:36;;;;;;;;;;;;;;;;;;5105623;28;20372;-66
2021/05/08 14:45:03;;;;;;;;;;;;;;;;;;5099151;28;20014;-64
2021/05/08 14:47:28;;;;;;;;;;;;;;;;;;5086788;28;19932;-64
2021/05/08 14:49:53;;;;;;;;;;;;;;;;;;5101097;28;20341;-64
2021/05/08 14:52:19;;;;;;;;;;;;;;;;;;5102145;28;19947;-64
2021/05/08 14:54:44;;;;;;;;;;;;;;;;;;5103095;28;19915;-64
2021/05/08 14:57:10;;;;;;;;;;;;;;;;;;5082939;28;20367;-65
2021/05/08 14:59:35;;;;;;;;;;;;;;;;;;5104816;28;20345;-65
2021/05/08 15:02:00;;;;;;;;;;;;;;;;;;5101782;28;19923;-65
2021/05/08 15:04:26;;;;;;;;;;;;;;;;;;5104871;28;19951;-66
2021/05/08 15:06:51;;;;;;;;;;;;;;;;;;5094035;28;19977;-65
2021/05/08 15:09:17;;;;;;;;;;;;;;;;;;5110369;28;19916;-65
2021/05/08 15:11:42;;;;;;;;;;;;;;;;;;5093956;28;19927;-64
2021/05/08 15:14:07;;;;;;;;;;;;;;;;;;5094973;28;19918;-65
2021/05/08 15:16:33;;;;;;;;;;;;;;;;;;5094012;28;19923;-65
2021/05/08 15:18:58;;;;;;;;;;;;;;;;;;5094514;28;19916;-64
2021/05/08 15:21:23;;;;;;;;;;;;;;;;;;5094489;28;19916;-64
2021/05/08 15:23:49;;;;;;;;;;;;;;;;;;5094814;28;19966;-66
2021/05/08 15:26:15;;;;;;;;;;;;;;;;;;5095471;28;20315;-66
2021/05/08 15:28:40;;;;;;;;;;;;;;;;;;5095053;28;19923;-65
2021/05/08 15:31:05;;;;;;;;;;;;;;;;;;5110684;28;19920;-65
2021/05/08 15:33:31;;;;;;;;;;;;;;;;;;5110641;28;20003;-65
2021/05/08 15:35:56;;;;;;;;;;;;;;;;;;5110253;28;19913;-65
2021/05/08 15:38:21;;;;;;;;;;;;;;;;;;5094652;28;20043;-65
2021/05/08 15:40:48;;;;;;;;;;;;;;;;;;5094877;28;19915;-65
2021/05/08 15:43:13;;;;;;;;;;;;;;;;;;5093550;28;19927;-66
2021/05/08 15:45:38;;;;;;;;;;;;;;;;;;5093653;28;19916;-66
2021/05/08 15:48:04;;;;;;;;;;;;;;;;;;5095064;28;19958;-66
2021/05/08 15:50:29;;;;;;;;;;;;;;;;;;5092268;28;19947;-66
2021/05/08 15:52:54;;;;;;;;;;;;;;;;;;5095275;28;20250;-66
2021/05/08 15:55:21;;;;;;;;;;;;;;;;;;5093422;28;19916;-66
2021/05/08 15:57:46;;;;;;;;;;;;;;;;;;5094987;28;19927;-66
2021/05/08 16:00:12;;;;;;;;;;;;;;;;;;5093680;28;19943;-66
2021/05/08 16:02:37;;;;;;;;;;;;;;;;;;5095125;28;19916;-65
2021/05/08 16:05:03;;;;;;;;;;;;;;;;;;5091041;28;19924;-63
2021/05/08 16:07:28;;;;;;;;;;;;;;;;;;5090143;28;19931;-64
2021/05/08 16:09:53;;;;;;;;;;;;;;;;;;5094193;28;19922;-64
2021/05/08 16:12:19;;;;;;;;;;;;;;;;;;5092347;28;19916;-64
2021/05/08 16:14:44;;;;;;;;;;;;;;;;;;5093701;28;20006;-63
2021/05/08 16:17:10;;;;;;;;;;;;;;;;;;5094381;28;19912;-65
2021/05/08 16:19:35;;;;;;;;;;;;;;;;;;5091555;28;19927;-64
2021/05/08 16:22:00;;;;;;;;;;;;;;;;;;5089007;28;19947;-63
2021/05/08 16:24:26;;;;;;;;;;;;;;;;;;5087864;28;20001;-64
2021/05/08 16:26:51;;;;;;;;;;;;;;;;;;5087891;28;20018;-64
2021/05/08 16:29:16;;;;;;;;;;;;;;;;;;5093243;28;20454;-64
2021/05/08 16:31:42;;;;;;;;;;;;;;;;;;5091601;28;19917;-65
2021/05/08 16:34:07;;;;;;;;;;;;;;;;;;5091144;28;20416;-64